Time;durP1;ratioP1;P1;durP2;ratioP2;P2;SDS_P1;SDS_P2;PMS_P1;PMS_P2;Temp;Humidity;BMP_temperature;BMP_pressure;BME280_temperature;BME280_humidity;BME280_pressure;Samples;Min_cycle;Max_cycle;Signal;HPM_P1;HPM_P2
2021/04/29 08:12:49;;;;;;;;;;;;;;;12.81;60.02;98521.41;6197365;22;19985;-81
2021/04/29 08:15:15;;;;;;;;;;;;;;;12.83;59.87;98522.13;6219018;23;19920;-82
2021/04/29 08:17:40;;;;;;;;;;;;;;;12.83;59.72;98527.44;6218782;23;19923;-82
2021/04/29 08:20:06;;;;;;;;;;;;;;;12.82;60.05;98523.06;6193244;23;19923;-82
2021/04/29 08:22:31;;;;;;;;;;;;;;;12.83;59.68;98524.78;6217849;23;19987;-81
2021/04/29 08:24:56;;;;;;;;;;;;;;;12.85;59.69;98524.69;6218007;23;19944;-81
2021/04/29 08:27:23;;;;;;;;;;;;;;;12.87;59.84;98536.03;6191922;23;20284;-82
2021/04/29 08:29:48;;;;;;;;;;;;;;;12.88;59.77;98537.75;6218195;23;19930;-82
2021/04/29 08:32:13;;;;;;;;;;;;;;;12.87;59.66;98539.53;6217842;23;20087;-82
2021/04/29 08:34:39;;;;;;;;;;;;;;;12.89;59.69;98536.78;6218812;23;19916;-81
2021/04/29 08:37:04;;;;;;;;;;;;;;;12.88;59.63;98533.28;6192643;23;19963;-81
2021/04/29 08:39:30;;;;;;;;;;;;;;;12.91;59.58;98529.56;6219106;23;19941;-82
2021/04/29 08:41:55;;;;;;;;;;;;;;;12.92;59.57;98533.06;6217920;23;19912;-81
2021/04/29 08:44:20;;;;;;;;;;;;;;;12.93;59.46;98545.41;6190779;23;19919;-81
2021/04/29 08:46:46;;;;;;;;;;;;;;;12.92;59.31;98543.69;6218195;23;20006;-81
2021/04/29 08:49:11;;;;;;;;;;;;;;;12.89;59.52;98550.94;6192492;23;19919;-81
2021/04/29 08:51:37;;;;;;;;;;;;;;;12.87;59.44;98555.50;6192963;23;20288;-81
2021/04/29 08:54:03;;;;;;;;;;;;;;;12.87;59.37;98558.16;6217649;23;19916;-81
2021/04/29 08:56:29;;;;;;;;;;;;;;;12.86;59.53;98559.13;6217951;23;19920;-81
2021/04/29 08:58:55;;;;;;;;;;;;;;;12.86;59.49;98559.13;6218180;23;19998;-81
2021/04/29 09:01:21;;;;;;;;;;;;;;;12.84;59.51;98553.09;6218130;23;19943;-81
2021/04/29 09:03:46;;;;;;;;;;;;;;;12.84;59.56;98553.09;6217944;23;20293;-81
2021/04/29 09:06:12;;;;;;;;;;;;;;;12.86;59.48;98555.59;6218304;23;19942;-81
2021/04/29 09:08:38;;;;;;;;;;;;;;;12.84;59.56;98557.53;6218002;23;19966;-82
2021/04/29 09:11:09;;;;;;;;;;;;;;;12.84;59.52;98557.53;6216902;23;19912;-81
2021/04/29 09:13:34;;;;;;;;;;;;;;;12.84;59.58;98561.06;6189189;23;19916;-81
2021/04/29 09:16:06;;;;;;;;;;;;;;;12.82;59.57;98572.75;6216369;23;19916;-82
2021/04/29 09:18:31;;;;;;;;;;;;;;;12.81;59.75;98569.25;6214827;23;19916;-82
2021/04/29 09:20:57;;;;;;;;;;;;;;;12.84;59.40;98569.03;6214911;23;19999;-81
2021/04/29 09:23:24;;;;;;;;;;;;;;;12.84;59.40;98571.69;6215565;23;20352;-82
2021/04/29 09:25:56;;;;;;;;;;;;;;;12.85;59.49;98569.88;6215329;23;19955;-81
2021/04/29 09:28:38;;;;;;;;;;;;;;;12.85;59.31;98576.03;6216464;23;19916;-81
2021/04/29 09:31:04;;;;;;;;;;;;;;;12.84;59.29;98574.34;6215987;23;19916;-81
2021/04/29 09:33:31;;;;;;;;;;;;;;;12.84;59.23;98569.03;6189075;23;19916;-81
2021/04/29 09:35:56;;;;;;;;;;;;;;;12.84;59.33;98570.81;6216309;23;19915;-81
2021/04/29 09:38:30;;;;;;;;;;;;;;;12.85;59.22;98569.88;6217352;23;19927;-82
2021/04/29 09:40:55;;;;;;;;;;;;;;;12.84;59.17;98576.13;6216440;23;19916;-81
2021/04/29 09:43:20;;;;;;;;;;;;;;;12.84;59.15;98569.03;6217329;23;19978;-81
2021/04/29 09:45:53;;;;;;;;;;;;;;;12.84;59.08;98569.03;6216688;23;19924;-82
2021/04/29 09:48:21;;;;;;;;;;;;;;;12.84;59.14;98574.34;6190359;23;20054;-82
2021/04/29 09:50:48;;;;;;;;;;;;;;;12.84;59.20;98574.34;6216330;23;19940;-82
2021/04/29 09:53:15;;;;;;;;;;;;;;;12.84;59.09;98576.13;6217667;23;19916;-81
2021/04/29 09:55:41;;;;;;;;;;;;;;;12.84;59.08;98584.09;6190637;23;19920;-82
2021/04/29 09:58:16;;;;;;;;;;;;;;;12.84;58.94;98584.97;6217455;23;19916;-81
2021/04/29 10:00:42;;;;;;;;;;;;;;;12.84;59.06;98584.97;6216708;23;19916;-82
2021/04/29 10:03:07;;;;;;;;;;;;;;;12.86;59.09;98582.19;6217161;23;19920;-80
2021/04/29 10:05:37;;;;;;;;;;;;;;;12.84;58.89;98584.97;6216022;23;19931;-82
2021/04/29 10:08:03;;;;;;;;;;;;;;;12.85;58.85;98581.34;6217428;23;19927;-82
2021/04/29 10:10:31;;;;;;;;;;;;;;;12.86;58.85;98587.50;6216896;23;19927;-81
2021/04/29 10:12:59;;;;;;;;;;;;;;;12.86;58.85;98587.50;6217006;23;19923;-81
2021/04/29 10:15:24;;;;;;;;;;;;;;;12.86;58.74;98577.72;6217339;23;20284;-81
2021/04/29 10:17:50;;;;;;;;;;;;;;;12.87;58.63;98583.88;6216368;23;19915;-81
2021/04/29 10:20:15;;;;;;;;;;;;;;;12.88;58.54;98580.28;6216736;23;19916;-81
2021/04/29 10:22:41;;;;;;;;;;;;;;;12.89;58.20;98582.84;6188943;23;19973;-81
2021/04/29 10:25:07;;;;;;;;;;;;;;;12.90;58.24;98578.34;6190379;23;19919;-81
2021/04/29 10:27:32;;;;;;;;;;;;;;;12.89;58.00;98582.84;6216198;23;19994;-81
2021/04/29 10:30:07;;;;;;;;;;;;;;;12.89;58.03;98574.88;6218476;23;19959;-81
2021/04/29 10:32:34;;;;;;;;;;;;;;;12.89;57.96;98585.50;6190279;23;20809;-81
2021/04/29 10:34:59;;;;;;;;;;;;;;;12.89;57.93;98580.19;6216140;23;19916;-81
2021/04/29 10:37:27;;;;;;;;;;;;;;;12.90;57.82;98567.72;6216714;23;19939;-81
2021/04/29 10:39:54;;;;;;;;;;;;;;;12.90;57.87;98579.19;6217483;23;19927;-82
2021/04/29 10:42:21;;;;;;;;;;;;;;;12.91;57.71;98564.13;6215883;23;19915;-82
2021/04/29 10:44:50;;;;;;;;;;;;;;;12.89;57.64;98572.19;6216112;23;19982;-80
2021/04/29 10:47:21;;;;;;;;;;;;;;;12.87;57.67;98568.78;6188058;23;21582;-81
2021/04/29 10:49:47;;;;;;;;;;;;;;;12.87;57.90;98574.09;6215905;23;19943;-81
2021/04/29 10:52:12;;;;;;;;;;;;;;;12.86;57.79;98572.41;6217318;23;19974;-81
2021/04/29 10:54:47;;;;;;;;;;;;;;;12.87;57.82;98575.91;6217734;23;19916;-81
2021/04/29 10:57:13;;;;;;;;;;;;;;;12.87;57.90;98583.88;6217938;23;19980;-81
2021/04/29 10:59:40;;;;;;;;;;;;;;;12.86;58.04;98575.06;6219378;23;20315;-81
2021/04/29 11:02:05;;;;;;;;;;;;;;;12.88;57.81;98572.31;6218548;23;19916;-81
2021/04/29 11:04:39;;;;;;;;;;;;;;;12.88;57.78;98583.78;6218600;23;19934;-81
2021/04/29 11:07:08;;;;;;;;;;;;;;;12.88;57.69;98578.47;6218396;23;19916;-81
2021/04/29 11:09:34;;;;;;;;;;;;;;;12.92;57.12;98580.91;6219064;23;19924;-81
